Time;durP1;ratioP1;P1;durP2;ratioP2;P2;SDS_P1;SDS_P2;PMS_P1;PMS_P2;Temp;Humidity;BMP_temperature;BMP_pressure;BME280_temperature;BME280_humidity;BME280_pressure;Samples;Min_cycle;Max_cycle;Signal;HPM_P1;HPM_P2
2023/07/18 00:00:47;;;;;;;8.27;2.60;;;13.60;99.90;;;;;;5009248;28;20197;-58
2023/07/18 00:03:17;;;;;;;4.60;2.90;;;13.60;99.90;;;;;;5006169;28;20201;-58
2023/07/18 00:05:47;;;;;;;4.53;2.77;;;13.60;99.90;;;;;;4996984;28;20549;-62
2023/07/18 00:08:14;;;;;;;3.80;1.97;;;13.60;99.90;;;;;;5005554;28;20255;-58
2023/07/18 00:10:41;;;;;;;3.00;1.93;;;13.60;99.90;;;;;;4991332;28;20213;-57
2023/07/18 00:13:08;;;;;;;4.60;2.70;;;13.60;99.90;;;;;;5010660;28;20201;-58
2023/07/18 00:15:35;;;;;;;4.03;2.80;;;13.60;99.90;;;;;;5006247;28;20224;-57
2023/07/18 00:18:03;;;;;;;4.30;2.60;;;13.50;99.90;;;;;;5010931;28;20197;-58
2023/07/18 00:20:30;;;;;;;5.80;2.40;;;13.40;99.90;;;;;;5008654;28;20728;-58
2023/07/18 00:22:59;;;;;;;10.23;2.83;;;13.40;99.90;;;;;;5006712;28;20279;-57
2023/07/18 00:25:26;;;;;;;5.83;2.53;;;13.50;99.90;;;;;;5018368;28;20237;-58
2023/07/18 00:27:56;;;;;;;5.00;2.83;;;13.40;99.90;;;;;;5008055;28;20306;-57
2023/07/18 00:30:23;;;;;;;3.73;2.20;;;13.40;99.90;;;;;;5007573;28;20279;-58
2023/07/18 00:32:50;;;;;;;4.10;2.33;;;13.40;99.90;;;;;;5009019;28;20597;-58
2023/07/18 00:35:18;;;;;;;3.53;2.57;;;13.40;99.90;;;;;;5006700;28;20584;-58
2023/07/18 00:37:45;;;;;;;3.17;2.00;;;13.40;99.90;;;;;;5004619;28;20201;-58
2023/07/18 00:40:14;;;;;;;6.97;2.60;;;13.30;99.90;;;;;;5008162;28;20215;-59
2023/07/18 00:42:47;;;;;;;3.73;1.80;;;13.40;99.90;;;;;;5009050;28;20727;-60
2023/07/18 00:45:15;;;;;;;6.33;2.50;;;13.40;99.90;;;;;;5012814;28;20235;-61
2023/07/18 00:47:44;;;;;;;5.57;2.60;;;13.40;99.90;;;;;;5008191;28;20782;-59
2023/07/18 00:50:14;;;;;;;3.73;2.33;;;13.40;99.90;;;;;;5005830;28;20193;-61
2023/07/18 00:52:44;;;;;;;7.93;2.40;;;13.30;99.90;;;;;;5007563;28;20537;-59
2023/07/18 00:55:13;;;;;;;3.50;2.00;;;13.30;99.90;;;;;;5017892;28;20573;-58
2023/07/18 00:57:41;;;;;;;3.53;1.80;;;13.30;99.90;;;;;;5009372;28;20312;-58
2023/07/18 01:00:11;;;;;;;3.40;1.90;;;13.30;99.90;;;;;;5006433;28;20572;-58
2023/07/18 01:02:41;;;;;;;3.40;2.53;;;13.30;99.90;;;;;;5018160;28;20197;-57
2023/07/18 01:05:09;;;;;;;7.07;2.60;;;13.30;99.90;;;;;;5008060;28;20276;-57
2023/07/18 01:07:39;;;;;;;5.33;2.20;;;13.30;99.90;;;;;;5004763;28;20580;-58
2023/07/18 01:10:13;;;;;;;4.23;2.07;;;13.30;99.90;;;;;;5006302;28;20197;-57
2023/07/18 01:12:40;;;;;;;7.63;2.53;;;13.20;99.90;;;;;;4991803;28;20200;-57
2023/07/18 01:15:12;;;;;;;7.10;2.57;;;13.20;99.90;;;;;;5006549;28;20634;-57
2023/07/18 01:17:44;;;;;;;6.03;2.53;;;13.10;99.90;;;;;;5021592;28;20205;-63
2023/07/18 01:20:21;;;;;;;8.13;2.40;;;13.00;99.90;;;;;;5005550;28;20196;-57
2023/07/18 01:22:53;;;;;;;4.30;2.30;;;12.90;99.90;;;;;;5009102;28;20208;-57
2023/07/18 01:25:21;;;;;;;7.60;2.97;;;12.90;99.90;;;;;;5007492;28;20779;-59
2023/07/18 01:27:51;;;;;;;3.83;2.13;;;12.90;99.90;;;;;;5005081;28;20197;-59
2023/07/18 01:30:22;;;;;;;7.43;3.40;;;12.90;99.90;;;;;;5008282;28;20220;-58
2023/07/18 01:32:49;;;;;;;3.70;2.97;;;13.00;99.90;;;;;;5007590;28;20283;-59
2023/07/18 01:35:19;;;;;;;3.27;2.20;;;13.10;99.90;;;;;;5005262;28;20677;-59
2023/07/18 01:37:47;;;;;;;4.87;2.40;;;13.00;99.90;;;;;;5006759;28;20311;-58
2023/07/18 01:40:19;;;;;;;5.47;2.40;;;13.00;99.90;;;;;;5008265;28;20205;-58
2023/07/18 01:42:51;;;;;;;5.10;2.30;;;12.90;99.90;;;;;;5006599;28;20208;-57
2023/07/18 01:45:19;;;;;;;4.20;2.50;;;12.90;99.90;;;;;;5010857;28;20304;-58
2023/07/18 01:47:48;;;;;;;5.17;2.43;;;12.90;99.90;;;;;;5010249;28;20941;-57
2023/07/18 01:50:16;;;;;;;3.23;2.00;;;12.90;99.90;;;;;;4993790;28;20189;-58
2023/07/18 01:52:43;;;;;;;4.20;2.77;;;12.80;99.90;;;;;;5008572;28;20208;-56
2023/07/18 01:55:11;;;;;;;6.13;2.20;;;12.80;99.90;;;;;;5010975;28;20557;-58
2023/07/18 01:57:38;;;;;;;5.07;2.60;;;12.90;99.90;;;;;;5010053;28;20197;-59
2023/07/18 02:03:40;;;;;;;4.23;2.73;;;13.00;99.90;;;;;;4988384;28;20885;-57
2023/07/18 02:06:09;;;;;;;5.30;3.33;;;13.00;99.90;;;;;;4986813;28;20268;-57
2023/07/18 02:08:36;;;;;;;2.93;2.37;;;12.90;99.90;;;;;;5007408;28;20208;-62
2023/07/18 02:11:03;;;;;;;3.13;2.40;;;12.90;99.90;;;;;;5005197;28;20607;-57
2023/07/18 02:13:30;;;;;;;4.73;2.30;;;13.00;99.90;;;;;;5003822;28;20208;-57
2023/07/18 02:15:57;;;;;;;3.30;2.60;;;13.00;99.90;;;;;;4991004;28;20196;-57
2023/07/18 02:18:24;;;;;;;4.77;2.30;;;12.90;99.90;;;;;;5012406;28;20374;-57
2023/07/18 02:20:51;;;;;;;7.77;2.10;;;12.80;99.90;;;;;;5010921;28;20189;-57
2023/07/18 02:23:18;;;;;;;4.33;2.47;;;12.80;99.90;;;;;;5008312;28;20197;-58
2023/07/18 02:25:46;;;;;;;3.40;2.40;;;12.80;99.90;;;;;;5007534;28;20212;-58
2023/07/18 02:28:13;;;;;;;3.90;2.30;;;12.70;99.90;;;;;;5007987;28;20199;-59
2023/07/18 02:30:42;;;;;;;8.47;4.30;;;12.70;99.90;;;;;;5009697;28;20204;-60
2023/07/18 02:33:10;;;;;;;6.77;3.00;;;12.80;99.90;;;;;;5003894;28;20700;-59
2023/07/18 02:35:38;;;;;;;8.40;3.07;;;12.80;99.90;;;;;;5001612;28;20697;-60
2023/07/18 02:38:05;;;;;;;5.60;2.47;;;12.80;99.90;;;;;;5005176;28;20193;-60
2023/07/18 02:40:32;;;;;;;3.50;2.20;;;12.80;99.90;;;;;;5003624;28;20189;-58
2023/07/18 02:43:03;;;;;;;5.70;2.07;;;12.60;99.90;;;;;;5001463;28;20259;-61
2023/07/18 02:45:31;;;;;;;6.23;2.93;;;12.50;99.90;;;;;;5007578;28;20555;-60
2023/07/18 02:47:58;;;;;;;5.60;2.77;;;12.50;99.90;;;;;;5007504;28;20192;-59
2023/07/18 02:50:26;;;;;;;8.87;2.53;;;12.40;99.90;;;;;;5005844;28;20673;-64
2023/07/18 02:52:57;;;;;;;11.43;3.93;;;12.40;99.90;;;;;;5002611;28;20189;-60
2023/07/18 02:55:24;;;;;;;4.80;2.90;;;12.30;99.90;;;;;;5020512;28;20208;-60
2023/07/18 02:57:52;;;;;;;4.33;2.47;;;12.40;99.90;;;;;;5008706;28;20203;-62
2023/07/18 03:00:20;;;;;;;10.53;2.80;;;12.60;99.90;;;;;;5007211;28;20224;-61
2023/07/18 03:02:48;;;;;;;5.40;2.33;;;12.70;99.90;;;;;;5005659;28;20696;-61
2023/07/18 03:05:18;;;;;;;6.67;2.33;;;12.70;99.90;;;;;;5007303;28;20246;-61
2023/07/18 03:07:49;;;;;;;4.23;2.53;;;12.70;99.90;;;;;;5002998;28;20669;-62
2023/07/18 03:10:17;;;;;;;2.37;2.00;;;12.70;99.90;;;;;;5006736;28;20456;-59
2023/07/18 03:12:46;;;;;;;3.23;2.00;;;12.80;99.90;;;;;;5003219;28;20247;-62
2023/07/18 03:15:13;;;;;;;4.73;2.23;;;12.90;99.90;;;;;;5006191;28;20312;-59
2023/07/18 03:17:41;;;;;;;3.20;2.20;;;12.90;99.90;;;;;;5008515;28;20207;-61
2023/07/18 03:20:19;;;;;;;6.63;2.20;;;12.90;99.90;;;;;;5005941;28;20272;-60
2023/07/18 03:22:50;;;;;;;5.67;2.47;;;12.90;99.90;;;;;;5003250;28;20196;-61
2023/07/18 03:25:17;;;;;;;6.33;2.57;;;12.90;99.90;;;;;;5012064;28;20197;-62
2023/07/18 03:27:44;;;;;;;3.07;2.30;;;12.90;99.90;;;;;;5008837;28;20201;-62
2023/07/18 03:30:12;;;;;;;4.00;2.20;;;12.90;99.90;;;;;;5007709;28;20185;-62
2023/07/18 03:32:41;;;;;;;4.37;2.20;;;13.00;99.90;;;;;;5013746;28;20232;-63
2023/07/18 03:35:10;;;;;;;3.53;2.30;;;13.10;99.90;;;;;;5006787;28;20288;-62
2023/07/18 03:37:38;;;;;;;5.00;1.80;;;13.40;99.90;;;;;;5013076;28;20196;-61
2023/07/18 03:40:06;;;;;;;5.53;2.90;;;13.40;99.90;;;;;;5008575;28;20292;-60
2023/07/18 03:42:33;;;;;;;4.33;2.57;;;13.30;99.90;;;;;;5007768;28;20193;-61
2023/07/18 03:45:01;;;;;;;3.67;2.17;;;13.30;99.90;;;;;;5005113;28;20198;-62
2023/07/18 03:47:28;;;;;;;5.00;2.47;;;13.20;99.90;;;;;;5006536;28;20476;-62
2023/07/18 03:49:56;;;;;;;3.87;2.10;;;13.20;99.90;;;;;;5005931;28;20193;-60
2023/07/18 03:52:23;;;;;;;4.87;2.30;;;13.40;99.90;;;;;;5011814;28;20203;-61
2023/07/18 03:54:50;;;;;;;4.57;2.00;;;13.30;99.90;;;;;;5006978;28;20185;-60
2023/07/18 03:57:17;;;;;;;5.30;2.00;;;13.40;99.90;;;;;;5006589;28;20201;-61
2023/07/18 03:59:44;;;;;;;7.47;2.53;;;13.50;99.90;;;;;;5011102;28;20730;-60
2023/07/18 04:02:14;;;;;;;2.97;2.23;;;13.60;99.90;;;;;;5009435;28;20201;-61
2023/07/18 04:04:41;;;;;;;3.47;2.00;;;13.40;99.90;;;;;;5004882;28;20250;-63
2023/07/18 04:07:08;;;;;;;3.20;2.07;;;13.30;99.90;;;;;;5002792;28;20232;-59
2023/07/18 04:09:35;;;;;;;3.73;2.23;;;13.40;99.90;;;;;;5010853;28;20610;-61
2023/07/18 04:12:02;;;;;;;4.57;2.47;;;13.40;99.90;;;;;;5008037;28;20216;-59
2023/07/18 04:14:29;;;;;;;2.73;2.13;;;13.50;99.90;;;;;;5003790;28;20189;-59
2023/07/18 04:16:56;;;;;;;3.03;2.73;;;13.50;99.90;;;;;;4989663;28;20209;-59
2023/07/18 04:19:23;;;;;;;5.23;2.63;;;13.70;99.90;;;;;;5007562;28;20211;-60
2023/07/18 04:21:50;;;;;;;2.70;2.20;;;13.70;99.90;;;;;;5006926;28;20660;-62
2023/07/18 04:24:17;;;;;;;5.23;2.43;;;13.60;99.90;;;;;;5005879;28;20946;-63
2023/07/18 04:26:44;;;;;;;6.47;1.97;;;13.70;99.90;;;;;;5006478;28;20759;-64
2023/07/18 04:29:11;;;;;;;5.43;2.27;;;13.70;99.90;;;;;;5001395;28;20196;-69
2023/07/18 04:31:38;;;;;;;3.80;2.77;;;14.00;99.90;;;;;;5007570;28;20237;-63
2023/07/18 04:34:05;;;;;;;8.43;2.73;;;14.10;99.90;;;;;;5008020;28;20235;-63
2023/07/18 04:36:33;;;;;;;6.40;2.13;;;14.40;99.90;;;;;;5009786;28;20200;-63
2023/07/18 04:39:00;;;;;;;3.87;2.27;;;15.30;99.90;;;;;;5007104;28;20225;-65
2023/07/18 04:41:27;;;;;;;4.50;2.33;;;16.50;99.90;;;;;;5013223;28;20228;-62
2023/07/18 04:44:07;;;;;;;5.13;2.47;;;17.00;99.90;;;;;;5003650;28;20867;-62
2023/07/18 04:46:34;;;;;;;4.10;2.30;;;16.90;99.90;;;;;;5008715;28;20201;-61
2023/07/18 04:49:01;;;;;;;4.85;2.30;;;16.60;99.90;;;;;;4996677;28;20197;-62
2023/07/18 04:51:28;;;;;;;3.08;2.20;;;17.20;99.90;;;;;;5011295;28;20239;-62
2023/07/18 04:53:56;;;;;;;5.07;2.03;;;17.90;99.90;;;;;;4992955;28;20268;-62
2023/07/18 04:56:23;;;;;;;2.05;1.45;;;19.20;99.90;;;;;;5011555;28;20247;-62
2023/07/18 04:58:49;;;;;;;2.35;1.55;;;20.10;99.90;;;;;;5010914;28;20259;-60
2023/07/18 05:01:16;;;;;;;7.60;3.45;;;20.40;99.90;;;;;;5004584;28;22205;-60
2023/07/18 05:03:44;;;;;;;8.60;2.00;;;20.00;99.90;;;;;;5007423;28;20314;-60
2023/07/18 05:06:24;;;;;;;6.70;2.00;;;20.30;99.90;;;;;;5007999;28;20212;-62
2023/07/18 05:08:51;;;;;;;6.25;2.05;;;20.70;99.90;;;;;;5004587;28;20208;-62
2023/07/18 05:11:18;;;;;;;8.10;2.17;;;21.50;99.90;;;;;;5008649;28;20247;-60
2023/07/18 05:13:54;;;;;;;6.78;2.50;;;22.30;99.90;;;;;;5007246;28;20284;-60
2023/07/18 05:16:23;;;;;;;4.50;1.88;;;21.90;99.90;;;;;;5005407;28;20205;-61
2023/07/18 05:18:50;;;;;;;10.32;2.30;;;22.50;99.90;;;;;;5009110;28;20267;-61
2023/07/18 05:21:17;;;;;;;4.47;2.10;;;22.80;99.90;;;;;;5010602;28;20983;-62
2023/07/18 05:23:45;;;;;;;3.88;2.30;;;23.10;99.90;;;;;;5005949;28;20239;-61
2023/07/18 05:26:12;;;;;;;4.60;2.20;;;23.50;99.90;;;;;;4995951;28;20213;-61
2023/07/18 05:28:39;;;;;;;3.80;2.55;;;23.80;99.90;;;;;;5002937;28;20189;-61
2023/07/18 05:31:10;;;;;;;6.55;2.25;;;22.30;99.90;;;;;;4990690;28;20201;-61
2023/07/18 05:33:37;;;;;;;7.18;2.03;;;22.70;99.90;;;;;;5005080;28;20244;-60
2023/07/18 05:36:04;;;;;;;7.93;2.40;;;21.40;99.90;;;;;;5006119;28;20226;-64
2023/07/18 05:38:31;;;;;;;5.20;2.10;;;20.70;99.90;;;;;;5007158;28;20189;-62
2023/07/18 05:40:58;;;;;;;3.25;2.10;;;21.20;99.90;;;;;;5004708;28;20212;-65
2023/07/18 05:43:29;;;;;;;2.85;1.77;;;21.90;99.90;;;;;;5010711;28;20283;-59
2023/07/18 05:45:56;;;;;;;9.80;2.00;;;22.70;99.90;;;;;;5006553;28;20657;-64
2023/07/18 05:48:23;;;;;;;4.90;1.90;;;22.80;99.90;;;;;;5008403;28;20199;-60
2023/07/18 05:50:50;;;;;;;3.47;1.95;;;24.00;99.90;;;;;;5002704;28;20197;-60
2023/07/18 05:53:17;;;;;;;4.15;1.92;;;22.30;99.90;;;;;;5007850;28;20661;-60
2023/07/18 05:55:44;;;;;;;7.72;2.22;;;22.70;99.90;;;;;;5010827;28;20197;-63
2023/07/18 05:58:11;;;;;;;4.97;1.73;;;22.80;99.90;;;;;;5006375;28;20362;-62
2023/07/18 06:00:39;;;;;;;4.40;1.90;;;22.90;99.90;;;;;;4994338;28;20230;-63
2023/07/18 06:03:06;;;;;;;4.85;1.92;;;24.00;99.90;;;;;;5006922;28;20692;-60
2023/07/18 06:05:33;;;;;;;3.88;1.90;;;26.10;99.90;;;;;;5010048;28;20243;-61
2023/07/18 06:08:00;;;;;;;5.50;2.00;;;24.70;99.90;;;;;;5006642;28;20232;-66
2023/07/18 06:10:27;;;;;;;6.35;2.20;;;24.00;99.90;;;;;;5007126;28;20200;-60
2023/07/18 06:12:54;;;;;;;7.75;2.05;;;25.20;99.90;;;;;;5010040;28;20204;-62
2023/07/18 06:15:21;;;;;;;15.77;2.58;;;25.70;99.90;;;;;;5010230;28;20725;-62
2023/07/18 06:17:48;;;;;;;6.32;2.05;;;24.50;99.90;;;;;;5007929;28;20227;-63
2023/07/18 06:20:16;;;;;;;7.55;2.28;;;26.30;99.90;;;;;;5011071;28;20200;-62
2023/07/18 06:22:47;;;;;;;6.10;2.10;;;24.50;99.90;;;;;;5009500;28;20251;-62
2023/07/18 06:25:15;;;;;;;4.53;2.17;;;24.90;99.90;;;;;;5007607;28;20973;-69
2023/07/18 06:27:42;;;;;;;4.05;2.20;;;26.50;99.90;;;;;;5001949;28;20728;-62
2023/07/18 06:30:10;;;;;;;7.47;1.85;;;25.80;99.90;;;;;;5003640;28;20781;-61
2023/07/18 06:32:39;;;;;;;2.92;1.75;;;28.10;99.90;;;;;;5007597;28;20227;-61
2023/07/18 06:35:07;;;;;;;4.38;2.08;;;27.90;97.90;;;;;;5008772;28;20193;-62
2023/07/18 06:37:49;;;;;;;5.95;2.08;;;27.10;97.60;;;;;;5007800;28;20249;-60
2023/07/18 06:40:17;;;;;;;3.03;1.90;;;25.60;96.30;;;;;;5012990;28;20196;-59
2023/07/18 06:42:44;;;;;;;4.10;1.73;;;24.60;95.10;;;;;;5008781;28;20685;-62
2023/07/18 06:45:12;;;;;;;2.90;1.60;;;24.00;96.90;;;;;;5012211;28;20243;-60
2023/07/18 06:47:39;;;;;;;2.80;1.60;;;25.20;97.60;;;;;;5006358;28;20292;-60
2023/07/18 06:50:07;;;;;;;7.15;1.67;;;25.40;97.70;;;;;;5011150;28;20215;-60
2023/07/18 06:52:34;;;;;;;4.03;1.80;;;25.80;95.70;;;;;;5003555;28;20189;-59
2023/07/18 06:55:04;;;;;;;2.30;1.50;;;26.20;95.30;;;;;;4996095;28;20280;-60
2023/07/18 06:57:31;;;;;;;2.25;1.70;;;26.50;95.00;;;;;;5006416;28;20239;-62
2023/07/18 06:59:58;;;;;;;2.55;1.65;;;26.90;93.40;;;;;;5012622;28;20205;-66
2023/07/18 07:02:25;;;;;;;2.60;1.77;;;28.30;95.10;;;;;;5007293;28;20207;-61
2023/07/18 07:04:52;;;;;;;3.63;1.80;;;26.40;92.10;;;;;;5005562;28;20221;-61
2023/07/18 07:07:19;;;;;;;2.92;1.77;;;26.80;92.70;;;;;;5004601;28;20656;-60
2023/07/18 07:09:46;;;;;;;3.40;1.83;;;24.90;91.90;;;;;;5011678;28;20192;-61
2023/07/18 07:12:14;;;;;;;2.55;1.65;;;25.00;92.50;;;;;;5009364;28;20236;-58
2023/07/18 07:14:56;;;;;;;6.47;1.73;;;25.20;92.40;;;;;;5002757;28;20247;-59
2023/07/18 07:17:23;;;;;;;4.82;1.73;;;25.80;90.80;;;;;;5007423;28;20197;-59
2023/07/18 07:19:50;;;;;;;2.67;1.60;;;26.50;91.10;;;;;;5007850;28;20201;-62
2023/07/18 07:22:17;;;;;;;4.70;1.73;;;28.80;93.20;;;;;;5006771;28;20216;-64
2023/07/18 07:24:47;;;;;;;2.25;1.58;;;28.10;90.40;;;;;;5008840;28;20196;-61
2023/07/18 07:27:14;;;;;;;7.97;1.55;;;30.30;92.10;;;;;;4998721;28;21153;-60
2023/07/18 07:29:41;;;;;;;5.47;1.77;;;30.60;81.10;;;;;;4998066;28;20695;-62
2023/07/18 07:32:08;;;;;;;4.40;1.35;;;30.50;83.00;;;;;;5000723;28;20202;-61
2023/07/18 07:34:35;;;;;;;2.85;1.45;;;30.40;82.90;;;;;;5004706;28;20532;-60
2023/07/18 07:37:05;;;;;;;4.32;1.90;;;30.70;81.30;;;;;;5004571;28;20203;-59
2023/07/18 07:39:32;;;;;;;4.45;1.58;;;32.40;82.20;;;;;;4998972;28;20283;-59
2023/07/18 07:41:59;;;;;;;4.43;1.67;;;29.50;72.80;;;;;;5006492;28;20398;-59
2023/07/18 07:44:26;;;;;;;2.97;1.85;;;29.00;75.30;;;;;;5005738;28;20201;-60
2023/07/18 07:46:55;;;;;;;3.92;1.98;;;28.60;74.50;;;;;;5005625;28;20669;-65
2023/07/18 07:49:22;;;;;;;3.00;1.60;;;28.90;74.90;;;;;;5001898;28;20197;-60
2023/07/18 07:51:49;;;;;;;4.60;2.03;;;28.60;71.10;;;;;;5005180;28;20201;-60
2023/07/18 07:54:16;;;;;;;2.70;1.35;;;29.30;70.10;;;;;;5001234;28;20193;-59
2023/07/18 07:56:43;;;;;;;2.88;1.63;;;28.60;65.50;;;;;;5005504;28;20315;-64
2023/07/18 07:59:10;;;;;;;8.07;1.80;;;29.40;72.20;;;;;;4991166;28;20240;-59
2023/07/18 08:01:38;;;;;;;3.90;2.00;;;30.90;71.50;;;;;;5006874;28;20279;-61
2023/07/18 08:04:08;;;;;;;4.47;1.60;;;32.80;63.50;;;;;;5003903;28;20708;-59
2023/07/18 08:06:35;;;;;;;3.75;1.98;;;29.50;59.20;;;;;;5003207;28;20696;-60
2023/07/18 08:09:02;;;;;;;3.95;1.45;;;31.00;69.20;;;;;;5002951;28;21091;-60
2023/07/18 08:11:29;;;;;;;2.20;1.40;;;31.50;64.70;;;;;;5005768;28;20673;-60
2023/07/18 08:13:56;;;;;;;4.25;2.17;;;32.30;61.40;;;;;;5007184;28;20603;-60
2023/07/18 08:16:24;;;;;;;3.35;2.15;;;34.90;64.90;;;;;;5005377;28;20197;-60
2023/07/18 08:18:53;;;;;;;4.13;2.30;;;36.50;58.30;;;;;;5002734;28;20200;-60
2023/07/18 08:21:21;;;;;;;5.35;2.45;;;36.10;49.90;;;;;;5005996;28;20446;-61
2023/07/18 08:23:48;;;;;;;3.30;1.50;;;36.60;53.00;;;;;;5001815;28;20201;-61
2023/07/18 08:26:15;;;;;;;4.88;2.63;;;33.40;49.90;;;;;;5006380;28;20196;-60
2023/07/18 08:28:43;;;;;;;5.05;2.25;;;35.20;54.10;;;;;;5005145;28;20217;-60
2023/07/18 08:31:10;;;;;;;7.85;2.75;;;36.40;51.90;;;;;;5003504;28;20700;-61
2023/07/18 08:33:37;;;;;;;2.75;1.65;;;36.10;50.90;;;;;;5006032;28;20217;-60
2023/07/18 08:36:05;;;;;;;6.15;1.35;;;36.70;46.40;;;;;;5016600;28;20249;-60
2023/07/18 08:38:32;;;;;;;4.28;1.70;;;36.00;45.30;;;;;;5007772;28;20231;-60
2023/07/18 08:40:59;;;;;;;3.65;1.17;;;34.90;42.90;;;;;;5009427;28;20205;-60
2023/07/18 08:43:27;;;;;;;2.38;1.52;;;33.70;42.20;;;;;;5009038;28;20564;-60
2023/07/18 08:45:55;;;;;;;5.53;1.35;;;35.40;46.60;;;;;;5006800;28;20201;-60
2023/07/18 08:48:23;;;;;;;1.65;1.10;;;33.80;41.90;;;;;;5002764;28;20234;-60
2023/07/18 08:50:53;;;;;;;2.95;1.50;;;34.20;44.20;;;;;;5001448;28;20204;-60
2023/07/18 08:53:20;;;;;;;2.00;1.35;;;35.70;41.10;;;;;;5007975;28;20197;-61
2023/07/18 08:55:48;;;;;;;3.33;1.75;;;35.30;42.20;;;;;;5006759;28;20243;-60
2023/07/18 08:58:18;;;;;;;4.38;1.85;;;35.70;42.10;;;;;;5009142;28;20703;-60
2023/07/18 09:00:45;;;;;;;3.88;1.65;;;34.40;38.70;;;;;;5002354;28;20259;-59
2023/07/18 09:03:17;;;;;;;4.65;1.67;;;34.60;40.00;;;;;;5005877;28;20201;-59
2023/07/18 09:05:44;;;;;;;1.67;1.15;;;37.20;40.90;;;;;;5000181;28;20194;-60
2023/07/18 09:08:11;;;;;;;2.35;1.20;;;35.90;30.80;;;;;;5004021;28;20751;-60
2023/07/18 09:10:38;;;;;;;2.13;1.38;;;32.30;30.50;;;;;;5008192;28;20715;-60
2023/07/18 09:13:07;;;;;;;3.58;1.33;;;31.80;35.60;;;;;;5010657;28;20201;-59
2023/07/18 09:15:36;;;;;;;1.25;1.13;;;32.00;35.40;;;;;;5008196;28;20199;-59
2023/07/18 09:18:05;;;;;;;1.50;1.05;;;30.60;31.50;;;;;;5010224;28;20196;-60
2023/07/18 09:20:33;;;;;;;1.50;1.17;;;33.00;37.00;;;;;;5002481;28;20228;-60
2023/07/18 09:23:04;;;;;;;2.20;1.20;;;35.00;35.50;;;;;;5000884;28;20204;-60
2023/07/18 09:25:38;;;;;;;1.27;0.90;;;33.20;28.50;;;;;;5005960;28;20505;-59
2023/07/18 09:28:11;;;;;;;1.73;1.15;;;31.40;30.00;;;;;;5007773;28;20236;-59
2023/07/18 09:30:39;;;;;;;3.22;1.10;;;32.60;29.70;;;;;;5009357;28;20199;-60
2023/07/18 09:33:06;;;;;;;1.67;1.08;;;32.30;29.90;;;;;;5000985;28;20452;-60
2023/07/18 09:35:38;;;;;;;1.90;1.20;;;32.80;33.60;;;;;;5000161;28;20664;-60
2023/07/18 09:38:09;;;;;;;7.00;1.38;;;33.90;31.50;;;;;;4994423;28;20212;-60
2023/07/18 09:40:37;;;;;;;2.38;1.40;;;34.50;31.50;;;;;;4999479;28;20256;-61
2023/07/18 09:43:06;;;;;;;2.78;1.60;;;35.30;31.60;;;;;;4980782;28;20223;-61
2023/07/18 09:45:33;;;;;;;1.85;1.35;;;33.90;28.00;;;;;;5001176;28;20228;-60
2023/07/18 09:48:02;;;;;;;1.48;1.00;;;34.10;28.30;;;;;;4988648;28;20232;-61
2023/07/18 09:50:33;;;;;;;2.05;1.25;;;34.50;27.20;;;;;;5000511;28;20196;-61
2023/07/18 09:53:06;;;;;;;1.63;1.20;;;36.10;29.10;;;;;;5001398;28;20204;-61
2023/07/18 09:55:34;;;;;;;1.17;0.98;;;35.80;23.90;;;;;;5001304;28;20204;-61
2023/07/18 09:58:02;;;;;;;2.28;0.90;;;33.90;22.90;;;;;;5001607;28;20204;-60
2023/07/18 10:00:29;;;;;;;5.22;2.08;;;34.10;24.00;;;;;;5002779;28;20327;-61
2023/07/18 10:02:57;;;;;;;2.63;1.15;;;35.40;22.80;;;;;;4986302;28;20700;-61
2023/07/18 10:05:25;;;;;;;2.90;1.23;;;34.80;24.80;;;;;;5002685;28;20204;-61
2023/07/18 10:07:53;;;;;;;2.10;1.23;;;36.10;23.10;;;;;;5002672;28;20620;-61
2023/07/18 10:10:20;;;;;;;2.08;1.23;;;32.90;19.10;;;;;;5003350;28;20680;-60
2023/07/18 10:12:59;;;;;;;4.78;2.35;;;29.20;23.90;;;;;;5001575;28;20204;-61
2023/07/18 10:15:27;;;;;;;3.35;2.67;;;31.90;26.80;;;;;;5001005;28;20213;-63
2023/07/18 10:17:54;;;;;;;8.38;6.13;;;33.90;25.00;;;;;;5003822;28;20201;-61
2023/07/18 10:20:34;;;;;;;1.25;1.02;;;33.50;22.70;;;;;;5002029;28;20188;-62
2023/07/18 10:23:05;;;;;;;2.40;1.55;;;31.40;20.80;;;;;;5000633;28;20232;-61
2023/07/18 10:25:32;;;;;;;2.50;1.17;;;31.10;22.50;;;;;;5002050;28;20242;-61
2023/07/18 10:28:00;;;;;;;1.83;1.65;;;30.70;22.50;;;;;;4999879;28;20205;-62
2023/07/18 10:30:41;;;;;;;3.10;1.48;;;31.50;22.10;;;;;;5000466;28;20489;-61
2023/07/18 10:33:08;;;;;;;1.55;1.00;;;32.20;22.00;;;;;;5001946;28;20240;-61
2023/07/18 10:35:43;;;;;;;2.00;1.25;;;31.40;20.20;;;;;;5006047;28;20196;-61
2023/07/18 10:38:14;;;;;;;8.23;5.47;;;30.50;21.40;;;;;;5007063;28;20215;-61
2023/07/18 10:40:43;;;;;;;18.42;10.32;;;32.00;24.30;;;;;;5003779;28;20201;-61
2023/07/18 10:43:18;;;;;;;11.05;5.82;;;34.30;22.20;;;;;;5004129;28;20273;-60
2023/07/18 10:45:45;;;;;;;10.00;5.47;;;35.80;20.60;;;;;;5005801;28;20200;-60
2023/07/18 10:48:13;;;;;;;3.88;1.70;;;36.70;19.30;;;;;;5004704;28;20757;-61
2023/07/18 10:50:42;;;;;;;4.57;2.60;;;34.20;16.30;;;;;;5003286;28;20192;-60
2023/07/18 10:53:20;;;;;;;11.20;4.35;;;34.20;17.20;;;;;;5005794;28;20215;-60
2023/07/18 10:55:48;;;;;;;8.10;4.80;;;33.80;19.10;;;;;;5002961;28;20246;-61
2023/07/18 10:58:20;;;;;;;8.45;4.53;;;33.60;19.60;;;;;;5004450;28;20205;-62
2023/07/18 11:00:49;;;;;;;7.18;4.38;;;31.70;19.70;;;;;;5005317;28;20240;-61
2023/07/18 11:03:24;;;;;;;3.40;2.10;;;30.70;21.00;;;;;;5003538;28;20597;-61
2023/07/18 11:05:52;;;;;;;6.90;2.67;;;29.80;19.70;;;;;;5004394;28;20220;-72
2023/07/18 11:08:25;;;;;;;3.95;2.78;;;28.50;22.20;;;;;;5005218;28;20217;-71
2023/07/18 11:10:53;;;;;;;6.95;3.60;;;29.10;22.60;;;;;;5004786;28;20233;-73
2023/07/18 11:13:32;;;;;;;3.15;2.28;;;29.60;22.70;;;;;;5000479;28;20205;-72
2023/07/18 11:16:05;;;;;;;4.90;2.28;;;29.50;24.10;;;;;;5005002;28;20199;-73
2023/07/18 11:18:39;;;;;;;1.80;1.50;;;29.80;23.60;;;;;;5001491;28;20205;-74
2023/07/18 11:21:07;;;;;;;2.58;1.70;;;30.20;23.30;;;;;;5004204;28;20216;-73
2023/07/18 11:23:35;;;;;;;1.75;1.42;;;30.30;22.50;;;;;;5004244;28;20823;-73
2023/07/18 11:26:12;;;;;;;4.60;2.05;;;30.00;22.60;;;;;;5003418;28;20652;-72
2023/07/18 11:28:41;;;;;;;6.10;3.55;;;30.90;22.70;;;;;;5008940;28;20212;-73
2023/07/18 11:31:19;;;;;;;3.20;2.38;;;31.20;22.20;;;;;;5006847;28;20317;-72
2023/07/18 11:34:05;;;;;;;4.05;2.60;;;30.80;22.50;;;;;;5007036;28;20228;-72
2023/07/18 11:36:35;;;;;;;2.67;1.55;;;31.30;22.60;;;;;;5006592;28;20201;-72
2023/07/18 11:39:15;;;;;;;4.38;2.40;;;31.80;21.00;;;;;;5006072;28;20196;-73
2023/07/18 11:41:45;;;;;;;4.28;2.85;;;31.40;21.00;;;;;;5006564;28;20201;-72
2023/07/18 11:44:25;;;;;;;2.63;2.15;;;30.80;20.70;;;;;;5006155;28;20208;-73
2023/07/18 11:46:54;;;;;;;2.42;1.60;;;30.50;21.10;;;;;;5005668;28;20200;-73
2023/07/18 11:49:35;;;;;;;3.67;2.13;;;30.20;21.10;;;;;;5002810;28;20213;-72
2023/07/18 11:52:04;;;;;;;2.22;1.83;;;29.50;21.90;;;;;;5004864;28;20291;-72
2023/07/18 11:54:35;;;;;;;3.22;1.67;;;29.60;22.20;;;;;;4999173;28;20637;-72
2023/07/18 11:57:04;;;;;;;5.05;2.20;;;30.70;21.50;;;;;;5004170;28;20201;-72
2023/07/18 11:59:32;;;;;;;1.90;1.30;;;31.80;19.70;;;;;;5004172;28;20189;-72
2023/07/18 12:01:59;;;;;;;3.03;1.33;;;31.80;19.90;;;;;;5004347;28;20193;-72
2023/07/18 12:04:26;;;;;;;3.58;1.95;;;31.80;18.30;;;;;;5000701;28;20683;-72
2023/07/18 12:06:53;;;;;;;5.63;3.65;;;32.10;19.10;;;;;;5003239;28;20204;-72
2023/07/18 12:09:20;;;;;;;4.43;1.98;;;32.60;18.50;;;;;;5003734;28;20225;-73
2023/07/18 12:11:47;;;;;;;2.75;1.85;;;33.30;17.50;;;;;;5004081;28;21473;-72
2023/07/18 12:14:14;;;;;;;3.80;2.40;;;34.00;16.50;;;;;;5000450;28;20200;-72
2023/07/18 12:16:41;;;;;;;3.15;1.20;;;33.50;15.90;;;;;;4983123;28;20225;-61
2023/07/18 12:19:09;;;;;;;4.35;2.00;;;33.20;16.10;;;;;;5001358;28;20288;-61
2023/07/18 12:21:36;;;;;;;2.67;1.80;;;33.20;16.60;;;;;;5003768;28;20210;-61
2023/07/18 12:24:04;;;;;;;3.55;1.33;;;32.70;15.50;;;;;;5003463;28;20319;-61
2023/07/18 12:26:31;;;;;;;1.75;1.60;;;31.80;16.40;;;;;;5003580;28;20192;-61
2023/07/18 12:28:58;;;;;;;2.05;1.52;;;31.30;17.10;;;;;;5003920;28;20205;-60
2023/07/18 12:31:25;;;;;;;3.03;2.45;;;31.10;17.70;;;;;;5002332;28;20205;-61
2023/07/18 12:33:53;;;;;;;2.15;1.65;;;29.40;16.00;;;;;;5006632;28;20253;-60
2023/07/18 12:36:20;;;;;;;7.07;3.22;;;29.50;19.30;;;;;;5007429;28;20203;-61
2023/07/18 12:38:48;;;;;;;5.75;1.67;;;29.10;16.80;;;;;;5004633;28;20197;-60
2023/07/18 12:41:16;;;;;;;2.92;1.73;;;29.80;19.40;;;;;;5008605;28;20676;-61
2023/07/18 12:43:44;;;;;;;4.65;1.77;;;29.60;19.20;;;;;;5007667;28;20209;-61
2023/07/18 12:46:13;;;;;;;3.72;2.05;;;29.00;19.60;;;;;;5005828;28;20280;-62
2023/07/18 12:48:43;;;;;;;4.15;1.80;;;28.60;18.90;;;;;;5002788;28;20217;-60
2023/07/18 12:51:14;;;;;;;5.03;2.40;;;28.90;19.90;;;;;;5005669;28;20189;-73
2023/07/18 12:53:41;;;;;;;3.75;2.50;;;29.10;21.10;;;;;;5007166;28;20205;-72
2023/07/18 12:56:08;;;;;;;5.55;2.75;;;29.00;20.60;;;;;;5006139;28;20723;-72